Startpagina
METAR-TAF:

METAR-TAF

Vliegvelden :

Dallas / Fort Worth, Texas, Verenigde Staten

Dallas/Fort Worth International Airport

breedte: 32-53-49N, lengte: 097-01-19W, hoogte: 183 m

Actueel weer

Dit bericht is 20 minuten geleden gemaakt, om 13:15 UTC
Wind 12 kt uit het zuiden
Temperatuur 25°C
Vochtigheid 89%
Druk 1013 hPa
Zicht: 14.5 km
Gebroken wolken op 1000 ft
Gebroken wolken op 19000 ft
Gebroken wolken op 30000 ft

METAR: KDFW 191315Z 18012KT 9SM BKN010 BKN190 BKN300 25/23 A2991 RMK AO2 T02500233

Tijdstip: 08:35 (13:35 UTC)

Verwachting

Dit bericht is 2 uur en het 15 minuten geleden gemaakt, om 11:20 UTC
Verwachting geldig van 19 om 12 UTC tot 20 om 18 UTC
Wind 9 kt uit het zuiden
Zicht: 10 km
Gebroken wolken op 1200 ft
Tijdelijke
van 19 om 12 UTC tot 19 om 14 UTC
Gebroken wolken op 900 ft
Van 19 om 1500 UTC
Wind 15 kt uit het zuiden
Zicht: 10 km
Verspreide wolken op 4000 ft

TAF: KDFW 191120Z 1912/2018 17009KT P6SM BKN012 TEMPO 1912/1914 BKN009 FM191500 18015KT P6SM SCT040

Waarnemingen en weersverwachtingen van meer dan 4000 vliegvelden (METAR en TAF).

De beschikbare stations zijn de gele en rode punten op de kaart.

Ga met uw muis naar het station om de naam te zien.

Klik dan om waarnemingen en weersverwachtingen te zien.

kaart wijzigen: klik op de groene knoppen met een zwart kruis om in te zoomen, op de groene knop met een streepje om uit te zoomen of op de groene pijlen voor aangrenzende kaarten.


METAR-TAF: